Terminal Aerodrome Forecast
Issued by NWS St Louis, MO

Home | Current Version | Previous Version | Text Only | Print | Product List | Glossary On
Versions: 1 2 3 4 5 6 7 8 9 10 11 12 13 14 15 16
601
FTUS43 KLSX 100526
TAFCOU
TAF
KCOU 100526Z 1006/1106 31014KT P6SM SCT040
     FM101700 28005KT P6SM VCSH BKN060
     FM102000 22005KT 3SM -SN BKN030
     FM102300 12005KT P6SM BKN050=

USA.gov is the U.S. government's official web portal to all federal, state and local government web resources and services.